createdAt,value
2023-04-16T00:00:05.080Z,10.300
2023-04-16T00:01:05.809Z,8.400
2023-04-16T00:02:05.165Z,14.900
2023-04-16T00:03:06.322Z,30.500
2023-04-16T00:04:05.512Z,26.400
2023-04-16T00:05:05.595Z,58.500
2023-04-16T00:07:05.220Z,33.100
2023-04-16T00:08:05.463Z,59.000
2023-04-16T00:09:05.756Z,43.200
2023-04-16T00:10:05.483Z,32.000
2023-04-16T00:11:05.673Z,26.700
2023-04-16T00:12:04.785Z,40.900
2023-04-16T00:13:04.934Z,29.100
2023-04-16T00:14:05.130Z,15.200
2023-04-16T00:15:05.719Z,17.700
2023-04-16T00:16:04.826Z,9.300
2023-04-16T00:17:05.464Z,7.900
2023-04-16T00:18:04.994Z,9.000
2023-04-16T00:19:05.182Z,8.900
2023-04-16T00:20:04.865Z,9.000
2023-04-16T00:21:05.112Z,25.500
2023-04-16T00:22:05.281Z,7.800
2023-04-16T00:23:05.556Z,8.000
2023-04-16T00:24:05.699Z,60.200
2023-04-16T00:25:04.794Z,7.800
2023-04-16T00:26:05.026Z,7.400
2023-04-16T00:27:05.227Z,14.800
2023-04-16T00:28:05.388Z,55.800
2023-04-16T00:29:05.076Z,12.100
2023-04-16T00:30:05.128Z,22.400
2023-04-16T00:31:05.328Z,8.500
2023-04-16T00:32:05.547Z,7.100
2023-04-16T00:33:05.908Z,55.500
2023-04-16T00:34:05.092Z,18.900
2023-04-16T00:35:05.296Z,9.500
2023-04-16T00:36:05.539Z,6.800
2023-04-16T00:37:05.766Z,17.900
2023-04-16T00:39:05.039Z,6.700
2023-04-16T00:40:05.792Z,10.400
2023-04-16T00:41:04.948Z,7.400
2023-04-16T00:42:05.152Z,7.300
2023-04-16T00:43:05.498Z,6.800
2023-04-16T00:44:06.019Z,6.700
2023-04-16T00:45:05.192Z,6.900
2023-04-16T00:46:05.409Z,7.100
2023-04-16T00:47:05.743Z,7.800
2023-04-16T00:48:04.976Z,14.700
2023-04-16T00:49:05.177Z,6.900
2023-04-16T00:50:05.831Z,7.000
2023-04-16T00:51:05.030Z,7.000
2023-04-16T00:52:05.346Z,7.200
2023-04-16T00:53:05.577Z,6.800
2023-04-16T00:54:05.762Z,6.400
2023-04-16T00:55:04.981Z,23.000
2023-04-16T00:56:05.168Z,10.400
2023-04-16T00:57:05.426Z,10.200
2023-04-16T00:58:05.592Z,9.100
2023-04-16T00:59:05.783Z,15.800
2023-04-16T01:01:04.952Z,18.300
2023-04-16T01:02:05.700Z,17.700
2023-04-16T01:03:05.884Z,11.900
2023-04-16T01:04:06.091Z,10.900
2023-04-16T01:06:04.869Z,7.500
2023-04-16T01:07:05.251Z,6.600
2023-04-16T01:08:05.426Z,7.200
2023-04-16T01:09:05.603Z,7.300
2023-04-16T01:11:05.215Z,7.500
2023-04-16T01:12:05.505Z,7.400
2023-04-16T01:13:05.795Z,7.200
2023-04-16T01:14:05.183Z,6.700
2023-04-16T01:15:05.334Z,8.100
2023-04-16T01:16:05.851Z,7.100
2023-04-16T01:17:05.214Z,6.800
2023-04-16T01:18:05.590Z,7.200
2023-04-16T01:19:04.800Z,6.800
2023-04-16T01:20:05.308Z,7.200
2023-04-16T01:21:05.484Z,6.500
2023-04-16T01:22:05.727Z,7.300
2023-04-16T01:24:05.145Z,7.300
2023-04-16T01:25:05.339Z,6.700
2023-04-16T01:26:05.720Z,6.900
2023-04-16T01:27:04.904Z,6.800
2023-04-16T01:28:05.022Z,6.700
2023-04-16T01:29:05.416Z,7.900
2023-04-16T01:30:05.121Z,7.400
2023-04-16T01:31:05.502Z,7.000
2023-04-16T01:33:05.560Z,6.400
2023-04-16T01:34:05.734Z,7.300
2023-04-16T01:35:04.937Z,6.900
2023-04-16T01:36:05.160Z,7.500
2023-04-16T01:37:05.419Z,9.400
2023-04-16T01:38:05.604Z,7.600
2023-04-16T01:39:05.818Z,12.300
2023-04-16T01:40:05.531Z,7.500
2023-04-16T01:41:05.815Z,26.700
2023-04-16T01:42:05.107Z,32.600
2023-04-16T01:43:05.305Z,22.800
2023-04-16T01:44:05.537Z,17.700
2023-04-16T01:45:05.717Z,25.000
2023-04-16T01:46:04.829Z,53.400
2023-04-16T01:47:05.109Z,47.100
2023-04-16T01:48:05.457Z,46.700
2023-04-16T01:49:05.693Z,39.000
2023-04-16T01:50:05.365Z,54.600
2023-04-16T01:51:05.564Z,60.600
2023-04-16T01:52:05.732Z,45.500
2023-04-16T01:53:04.833Z,51.900
2023-04-16T01:54:05.083Z,17.400
2023-04-16T01:55:05.210Z,21.000
2023-04-16T01:56:05.344Z,34.400
2023-04-16T01:57:05.500Z,38.800
2023-04-16T01:58:05.796Z,33.500
2023-04-16T02:00:05.812Z,51.500
2023-04-16T02:01:05.177Z,46.900
2023-04-16T02:02:05.570Z,37.700
2023-04-16T02:03:05.474Z,24.700
2023-04-16T02:04:05.590Z,16.900
2023-04-16T02:05:05.927Z,14.900
2023-04-16T02:06:05.106Z,12.300
2023-04-16T02:07:05.435Z,12.900
2023-04-16T02:08:05.680Z,17.300
2023-04-16T02:09:04.808Z,24.900
2023-04-16T02:10:05.490Z,15.400
2023-04-16T02:11:05.699Z,31.600
2023-04-16T02:12:05.131Z,17.700
2023-04-16T02:13:05.386Z,26.600
2023-04-16T02:14:05.643Z,28.200
2023-04-16T02:15:04.858Z,32.800
2023-04-16T02:16:05.344Z,31.600
2023-04-16T02:17:06.027Z,32.400
2023-04-16T02:18:05.460Z,48.200
2023-04-16T02:19:05.012Z,29.300
2023-04-16T02:20:05.281Z,29.000
2023-04-16T02:21:05.520Z,21.400
2023-04-16T02:22:05.730Z,18.000
2023-04-16T02:23:04.900Z,17.400
2023-04-16T02:24:05.126Z,33.400
2023-04-16T02:25:05.341Z,11.700
2023-04-16T02:26:05.567Z,13.900
2023-04-16T02:27:05.713Z,25.200
2023-04-16T02:28:05.118Z,24.100
2023-04-16T02:29:05.333Z,13.400
2023-04-16T02:30:04.882Z,17.900
2023-04-16T02:31:05.018Z,33.800
2023-04-16T02:32:05.290Z,32.300
2023-04-16T02:33:05.121Z,12.900
2023-04-16T02:34:05.445Z,26.800
2023-04-16T02:35:05.662Z,8.400
2023-04-16T02:36:04.742Z,17.200
2023-04-16T02:37:04.952Z,14.400
2023-04-16T02:38:05.080Z,11.700
2023-04-16T02:39:05.363Z,11.200
2023-04-16T02:40:04.984Z,11.800
2023-04-16T02:41:05.151Z,8.100
2023-04-16T02:42:05.447Z,14.300
2023-04-16T02:43:05.662Z,16.900
2023-04-16T02:44:04.912Z,12.700
2023-04-16T02:45:05.106Z,18.400
2023-04-16T02:46:05.528Z,19.200
2023-04-16T02:47:04.888Z,9.700
2023-04-16T02:48:05.137Z,11.700
2023-04-16T02:49:05.256Z,9.400
2023-04-16T02:51:05.056Z,17.700
2023-04-16T02:52:05.299Z,11.900
2023-04-16T02:53:05.500Z,10.600
2023-04-16T02:54:05.956Z,9.700
2023-04-16T02:56:05.224Z,8.700
2023-04-16T02:57:05.372Z,7.500
2023-04-16T02:58:05.547Z,7.100
2023-04-16T02:59:05.791Z,5.600
2023-04-16T03:00:05.498Z,5.500
2023-04-16T03:01:05.833Z,4.600
2023-04-16T03:02:05.296Z,5.400
2023-04-16T03:03:06.087Z,8.700
2023-04-16T03:04:05.566Z,8.400
2023-04-16T03:06:05.347Z,7.400
2023-04-16T03:07:05.706Z,6.900
2023-04-16T03:09:05.057Z,5.500
2023-04-16T03:10:05.517Z,7.500
2023-04-16T03:11:05.759Z,5.200
2023-04-16T03:12:04.947Z,7.900
2023-04-16T03:13:05.040Z,6.400
2023-04-16T03:14:05.301Z,5.500
2023-04-16T03:15:05.521Z,5.400
2023-04-16T03:16:06.043Z,5.000
2023-04-16T03:17:05.356Z,5.300
2023-04-16T03:19:04.821Z,5.000
2023-04-16T03:20:05.267Z,5.200
2023-04-16T03:21:05.463Z,5.400
2023-04-16T03:22:05.765Z,5.800
2023-04-16T03:23:04.898Z,5.600
2023-04-16T03:24:05.100Z,4.800
2023-04-16T03:25:05.456Z,5.600
2023-04-16T03:26:05.571Z,5.100
2023-04-16T03:27:05.728Z,5.400
2023-04-16T03:28:04.991Z,6.200
2023-04-16T03:29:05.167Z,6.000
2023-04-16T03:30:05.759Z,7.400
2023-04-16T03:31:04.937Z,6.900
2023-04-16T03:32:05.279Z,6.300
2023-04-16T03:33:05.488Z,6.200
2023-04-16T03:34:05.684Z,5.900
2023-04-16T03:35:04.799Z,6.500
2023-04-16T03:36:05.011Z,6.000
2023-04-16T03:37:05.148Z,6.400
2023-04-16T03:38:05.256Z,6.000
2023-04-16T03:39:05.519Z,6.100
2023-04-16T03:40:05.213Z,7.200
2023-04-16T03:41:05.466Z,7.100
2023-04-16T03:42:05.668Z,7.500
2023-04-16T03:43:05.165Z,7.200
2023-04-16T03:44:05.444Z,7.600
2023-04-16T03:45:05.811Z,7.300
2023-04-16T03:46:05.059Z,7.000
2023-04-16T03:47:05.612Z,6.900
2023-04-16T03:48:04.936Z,7.100
2023-04-16T03:49:05.288Z,7.200
2023-04-16T03:50:05.425Z,7.000
2023-04-16T03:51:05.617Z,7.200
2023-04-16T03:52:04.809Z,7.100
2023-04-16T03:53:05.010Z,6.300
2023-04-16T03:54:05.176Z,7.400
2023-04-16T03:55:05.524Z,6.900
2023-04-16T03:56:05.735Z,6.400
2023-04-16T03:58:05.032Z,6.300
2023-04-16T03:59:05.163Z,6.600
2023-04-16T04:00:05.799Z,7.000
2023-04-16T04:01:05.023Z,7.200
2023-04-16T04:02:05.387Z,7.200
2023-04-16T04:03:05.490Z,7.600
2023-04-16T04:04:05.907Z,7.300
2023-04-16T04:06:05.162Z,7.000
2023-04-16T04:07:05.750Z,6.600
2023-04-16T04:08:04.867Z,6.900
2023-04-16T04:09:05.067Z,6.800
2023-04-16T04:10:05.265Z,7.400
2023-04-16T04:11:05.415Z,6.800
2023-04-16T04:12:05.660Z,7.000
2023-04-16T04:13:04.840Z,6.800
2023-04-16T04:14:05.084Z,7.000
2023-04-16T04:15:05.280Z,7.000
2023-04-16T04:16:05.748Z,7.000
2023-04-16T04:17:05.096Z,7.700
2023-04-16T04:18:05.425Z,7.000
2023-04-16T04:19:05.658Z,7.700
2023-04-16T04:20:15.270Z,7.000
2023-04-16T04:21:05.440Z,6.600
2023-04-16T04:22:05.579Z,7.500
2023-04-16T04:23:05.776Z,7.200
2023-04-16T04:24:04.976Z,6.500
2023-04-16T04:25:05.238Z,7.200
2023-04-16T04:26:05.738Z,7.100
2023-04-16T04:27:05.175Z,7.400
2023-04-16T04:28:05.309Z,6.600
2023-04-16T04:29:05.531Z,7.400
2023-04-16T04:30:05.269Z,7.200
2023-04-16T04:31:05.456Z,7.500
2023-04-16T04:32:05.819Z,7.100
2023-04-16T04:34:05.387Z,7.400
2023-04-16T04:35:06.033Z,6.800
2023-04-16T04:36:05.195Z,7.600
2023-04-16T04:37:05.436Z,7.000
2023-04-16T04:38:05.663Z,6.700
2023-04-16T04:39:05.817Z,7.400
2023-04-16T04:40:05.514Z,7.300
2023-04-16T04:41:05.692Z,7.300
2023-04-16T04:42:05.027Z,6.600
2023-04-16T04:43:05.211Z,6.900
2023-04-16T04:44:05.434Z,7.300
2023-04-16T04:45:05.814Z,7.100
2023-04-16T04:46:05.477Z,7.600
2023-04-16T04:47:05.798Z,7.500
2023-04-16T04:48:05.096Z,7.500
2023-04-16T04:49:05.352Z,7.400
2023-04-16T04:50:04.896Z,7.500
2023-04-16T04:51:05.479Z,8.800
2023-04-16T04:52:05.668Z,8.600
2023-04-16T04:53:04.835Z,7.300
2023-04-16T04:54:05.067Z,7.900
2023-04-16T04:55:05.267Z,7.600
2023-04-16T04:56:13.270Z,7.500
2023-04-16T04:57:05.551Z,7.900
2023-04-16T04:58:05.664Z,7.900
2023-04-16T04:59:04.834Z,7.900
2023-04-16T05:00:05.551Z,7.200
2023-04-16T05:01:05.356Z,7.600
2023-04-16T05:02:05.852Z,7.600
2023-04-16T05:03:05.402Z,7.100
2023-04-16T05:06:04.956Z,8.300
2023-04-16T05:07:05.043Z,7.200
2023-04-16T05:08:05.275Z,7.500
2023-04-16T05:09:05.412Z,7.600
2023-04-16T05:10:04.934Z,7.800
2023-04-16T05:11:05.179Z,8.200
2023-04-16T05:12:05.298Z,7.800
2023-04-16T05:13:05.484Z,8.000
2023-04-16T05:14:05.709Z,7.600
2023-04-16T05:15:04.843Z,7.300
2023-04-16T05:16:05.092Z,8.100
2023-04-16T05:17:05.482Z,8.400
2023-04-16T05:18:05.943Z,7.500
2023-04-16T05:19:05.337Z,8.000
2023-04-16T05:21:05.343Z,7.300
2023-04-16T05:22:05.634Z,7.000
2023-04-16T05:23:05.811Z,8.000
2023-04-16T05:24:04.972Z,7.600
2023-04-16T05:25:05.115Z,7.700
2023-04-16T05:26:05.336Z,7.200
2023-04-16T05:27:05.563Z,8.000
2023-04-16T05:28:05.743Z,7.400
2023-04-16T05:29:04.945Z,8.100
2023-04-16T05:30:05.318Z,7.300
2023-04-16T05:31:05.734Z,7.400
2023-04-16T05:32:05.001Z,7.500
2023-04-16T05:33:05.471Z,7.200
2023-04-16T05:34:05.653Z,7.900
2023-04-16T05:35:04.836Z,8.000
2023-04-16T05:36:04.984Z,8.100
2023-04-16T05:37:05.290Z,7.800
2023-04-16T05:38:05.490Z,7.400
2023-04-16T05:39:05.798Z,7.400
2023-04-16T05:41:05.850Z,7.400
2023-04-16T05:42:05.035Z,7.100
2023-04-16T05:43:05.266Z,7.600
2023-04-16T05:44:05.763Z,8.700
2023-04-16T05:46:05.231Z,7.600
2023-04-16T05:47:05.608Z,7.100
2023-04-16T05:48:06.114Z,6.800
2023-04-16T05:50:05.772Z,7.300
2023-04-16T05:51:04.876Z,7.700
2023-04-16T05:52:06.564Z,7.500
2023-04-16T05:53:05.857Z,6.800
2023-04-16T05:55:05.239Z,8.300
2023-04-16T05:56:05.460Z,7.200
2023-04-16T05:57:05.724Z,7.200
2023-04-16T05:59:05.189Z,6.800
2023-04-16T06:00:05.321Z,6.800
2023-04-16T06:01:05.479Z,7.100
2023-04-16T06:02:07.563Z,7.000
2023-04-16T06:03:05.391Z,6.800
2023-04-16T06:04:05.793Z,6.900
2023-04-16T06:05:05.316Z,6.700
2023-04-16T06:06:05.968Z,7.000
2023-04-16T06:07:05.159Z,6.700
2023-04-16T06:08:05.360Z,6.500
2023-04-16T06:09:05.616Z,7.700
2023-04-16T06:10:05.260Z,6.200
2023-04-16T06:11:05.443Z,6.700
2023-04-16T06:12:06.650Z,6.700
2023-04-16T06:13:04.815Z,7.000
2023-04-16T06:14:04.987Z,6.900
2023-04-16T06:15:05.197Z,6.100
2023-04-16T06:16:05.578Z,6.400
2023-04-16T06:17:04.886Z,6.900
2023-04-16T06:18:05.422Z,6.500
2023-04-16T06:19:05.838Z,6.300
2023-04-16T06:20:05.528Z,6.500
2023-04-16T06:21:05.651Z,6.100
2023-04-16T06:22:04.835Z,6.200
2023-04-16T06:23:05.081Z,6.300
2023-04-16T06:24:05.291Z,6.000
2023-04-16T06:25:05.516Z,6.300
2023-04-16T06:26:05.631Z,6.900
2023-04-16T06:27:05.843Z,6.600
2023-04-16T06:28:05.020Z,5.700
2023-04-16T06:29:05.167Z,6.500
2023-04-16T06:30:10.685Z,6.400
2023-04-16T06:31:04.798Z,4.700
2023-04-16T06:32:05.327Z,4.200
2023-04-16T06:33:05.890Z,4.300
2023-04-16T06:34:05.188Z,4.500
2023-04-16T06:35:05.410Z,3.800
2023-04-16T06:36:05.583Z,4.300
2023-04-16T06:37:06.417Z,4.100
2023-04-16T06:39:05.657Z,3.800
2023-04-16T06:40:04.935Z,3.600
2023-04-16T06:41:05.206Z,3.400
2023-04-16T06:42:05.414Z,3.500
2023-04-16T06:43:05.644Z,2.800
2023-04-16T06:44:05.814Z,3.300
2023-04-16T06:45:04.973Z,3.900
2023-04-16T06:46:05.117Z,3.400
2023-04-16T06:47:05.532Z,3.900
2023-04-16T06:48:05.100Z,3.300
2023-04-16T06:49:05.411Z,3.600
2023-04-16T06:50:04.886Z,3.800
2023-04-16T06:51:04.983Z,4.000
2023-04-16T06:52:05.987Z,3.500
2023-04-16T06:53:05.363Z,3.400
2023-04-16T06:54:05.533Z,3.500
2023-04-16T06:55:05.692Z,3.200
2023-04-16T06:56:04.929Z,3.200
2023-04-16T06:57:05.125Z,3.700
2023-04-16T06:58:05.308Z,3.900
2023-04-16T06:59:05.519Z,4.000
2023-04-16T07:01:05.508Z,3.800
2023-04-16T07:02:04.973Z,4.100
2023-04-16T07:03:05.792Z,4.000
2023-04-16T07:04:06.751Z,3.900
2023-04-16T07:06:05.357Z,3.900
2023-04-16T07:07:05.541Z,3.600
2023-04-16T07:08:05.708Z,3.600
2023-04-16T07:09:04.876Z,3.200
2023-04-16T07:10:05.208Z,3.500
2023-04-16T07:11:06.094Z,3.300
2023-04-16T07:12:05.229Z,3.300
2023-04-16T07:13:05.540Z,4.100
2023-04-16T07:14:05.755Z,4.100
2023-04-16T07:15:04.887Z,3.900
2023-04-16T07:16:05.185Z,3.800
2023-04-16T07:17:05.831Z,4.000
2023-04-16T07:18:05.082Z,3.800
2023-04-16T07:19:05.533Z,4.100
2023-04-16T07:20:05.156Z,4.200
2023-04-16T07:21:05.367Z,4.700
2023-04-16T07:22:05.564Z,4.200
2023-04-16T07:23:05.756Z,4.600
2023-04-16T07:24:05.519Z,4.600
2023-04-16T07:25:05.923Z,4.200
2023-04-16T07:26:05.210Z,4.200
2023-04-16T07:27:06.173Z,4.400
2023-04-16T07:28:06.438Z,4.600
2023-04-16T07:29:07.408Z,5.000
2023-04-16T07:30:07.801Z,3.900
2023-04-16T07:31:06.131Z,4.200
2023-04-16T07:32:06.301Z,4.400
2023-04-16T07:33:06.214Z,4.300
2023-04-16T07:34:04.887Z,4.700
2023-04-16T07:35:05.182Z,5.000
2023-04-16T07:36:05.631Z,5.300
2023-04-16T07:37:05.813Z,6.100
2023-04-16T07:38:05.223Z,4.400
2023-04-16T07:39:05.464Z,4.900
2023-04-16T07:40:05.082Z,4.700
2023-04-16T07:41:05.285Z,4.700
2023-04-16T07:42:05.600Z,4.400
2023-04-16T07:43:05.819Z,4.900
2023-04-16T07:44:05.027Z,4.600
2023-04-16T07:45:05.164Z,4.500
2023-04-16T07:46:05.469Z,4.500
2023-04-16T07:47:10.895Z,4.800
2023-04-16T07:48:05.099Z,4.900
2023-04-16T07:49:05.351Z,4.200
2023-04-16T07:50:05.639Z,4.300
2023-04-16T07:51:04.815Z,5.100
2023-04-16T07:52:04.988Z,4.400
2023-04-16T07:53:05.173Z,4.400
2023-04-16T07:54:05.367Z,4.500
2023-04-16T07:55:05.553Z,3.600
2023-04-16T07:56:05.791Z,3.600
2023-04-16T07:57:05.260Z,3.700
2023-04-16T07:58:05.438Z,3.900
2023-04-16T07:59:19.004Z,4.100
2023-04-16T08:01:08.741Z,3.900
2023-04-16T08:02:07.977Z,3.500
2023-04-16T08:03:09.228Z,3.800
2023-04-16T08:04:08.616Z,4.700
2023-04-16T08:05:08.826Z,4.900
2023-04-16T08:06:08.196Z,4.800
2023-04-16T08:07:08.590Z,4.400
2023-04-16T08:09:08.138Z,4.700
2023-04-16T08:10:07.944Z,4.500
2023-04-16T08:11:08.122Z,4.200
2023-04-16T08:12:08.466Z,4.000
2023-04-16T08:13:08.644Z,2.900
2023-04-16T08:14:08.846Z,3.500
2023-04-16T08:15:08.068Z,3.300
2023-04-16T08:16:08.460Z,3.000
2023-04-16T08:17:07.854Z,3.500
2023-04-16T08:18:08.170Z,3.800
2023-04-16T08:19:08.525Z,3.000
2023-04-16T08:20:08.587Z,3.300
2023-04-16T08:21:08.063Z,3.300
2023-04-16T08:22:08.188Z,3.200
2023-04-16T08:23:08.323Z,3.200
2023-04-16T08:24:08.599Z,2.900
2023-04-16T08:25:08.837Z,3.100
2023-04-16T08:26:08.841Z,2.700
2023-04-16T08:27:17.627Z,2.200
2023-04-16T08:29:08.286Z,2.500
2023-04-16T08:30:07.810Z,3.000
2023-04-16T08:31:08.129Z,3.200
2023-04-16T08:32:08.694Z,3.900
2023-04-16T08:33:07.967Z,3.500
2023-04-16T08:34:08.277Z,2.800
2023-04-16T08:35:08.485Z,3.300
2023-04-16T08:36:08.816Z,3.100
2023-04-16T08:37:08.020Z,11.600
2023-04-16T08:38:08.324Z,4.200
2023-04-16T08:39:08.712Z,3.000
2023-04-16T08:40:08.848Z,2.800
2023-04-16T08:42:08.168Z,3.000
2023-04-16T08:43:08.337Z,3.000
2023-04-16T08:44:08.499Z,3.100
2023-04-16T08:45:08.654Z,3.400
2023-04-16T08:46:08.816Z,2.800
2023-04-16T08:47:08.369Z,3.100
2023-04-16T08:48:08.783Z,3.000
2023-04-16T08:49:08.107Z,3.000
2023-04-16T08:50:07.952Z,2.900
2023-04-16T08:51:10.008Z,3.300
2023-04-16T08:52:08.234Z,3.700
2023-04-16T08:53:08.732Z,3.800
2023-04-16T08:54:07.874Z,4.400
2023-04-16T08:55:12.867Z,3.500
2023-04-16T08:56:07.971Z,3.400
2023-04-16T08:57:08.152Z,3.500
2023-04-16T08:58:08.331Z,4.000
2023-04-16T08:59:08.628Z,3.600
2023-04-16T09:00:08.328Z,3.400
2023-04-16T09:01:08.568Z,3.500
2023-04-16T09:02:09.230Z,3.400
2023-04-16T09:03:09.239Z,3.500
2023-04-16T09:04:08.277Z,3.400
2023-04-16T09:05:08.663Z,3.700
2023-04-16T09:07:08.050Z,3.100
2023-04-16T09:08:08.292Z,3.600
2023-04-16T09:09:08.680Z,3.300
2023-04-16T09:10:08.466Z,3.600
2023-04-16T09:11:08.683Z,2.900
2023-04-16T09:12:07.845Z,3.600
2023-04-16T09:13:08.083Z,3.400
2023-04-16T09:14:08.403Z,2.800
2023-04-16T09:15:08.552Z,2.600
2023-04-16T09:16:08.898Z,2.900
2023-04-16T09:17:08.523Z,2.800
2023-04-16T09:18:08.787Z,2.800
2023-04-16T09:19:08.030Z,3.100
2023-04-16T09:20:08.855Z,3.600
2023-04-16T09:21:07.945Z,3.300
2023-04-16T09:22:08.171Z,3.200
2023-04-16T09:23:08.423Z,3.700
2023-04-16T09:24:08.641Z,3.800
2023-04-16T09:25:08.754Z,3.400
2023-04-16T09:27:08.148Z,3.800
2023-04-16T09:28:08.324Z,3.200
2023-04-16T09:29:08.673Z,3.400
2023-04-16T09:30:08.452Z,3.200
2023-04-16T09:31:08.536Z,3.400
2023-04-16T09:32:08.970Z,3.700
2023-04-16T09:33:08.675Z,3.800
2023-04-16T09:34:08.129Z,3.500
2023-04-16T09:35:08.381Z,3.600
2023-04-16T09:36:08.815Z,3.600
2023-04-16T09:38:08.149Z,3.500
2023-04-16T09:39:11.218Z,3.400
2023-04-16T09:41:08.606Z,3.200
2023-04-16T09:43:07.963Z,3.400
2023-04-16T09:44:08.118Z,3.300
2023-04-16T09:45:08.405Z,3.100
2023-04-16T09:46:08.802Z,2.900
2023-04-16T09:47:08.063Z,3.200
2023-04-16T09:48:08.390Z,3.100
2023-04-16T09:49:08.709Z,3.100
2023-04-16T09:50:08.100Z,3.400
2023-04-16T09:51:07.936Z,3.000
2023-04-16T09:52:08.107Z,2.900
2023-04-16T09:53:08.324Z,3.100
2023-04-16T09:54:08.794Z,3.200
2023-04-16T09:55:08.061Z,2.900
2023-04-16T09:56:08.325Z,2.900
2023-04-16T09:57:08.540Z,3.000
2023-04-16T09:58:08.728Z,3.000
2023-04-16T09:59:07.983Z,3.000
2023-04-16T10:00:07.864Z,3.100
2023-04-16T10:01:13.613Z,2.900
2023-04-16T10:02:15.043Z,2.700
2023-04-16T10:03:08.467Z,2.500
2023-04-16T10:04:09.380Z,3.300
2023-04-16T10:05:09.060Z,3.100
2023-04-16T10:06:08.323Z,3.000
2023-04-16T10:07:08.503Z,3.200
2023-04-16T10:08:08.668Z,3.100
2023-04-16T10:09:07.864Z,2.800
2023-04-16T10:10:08.687Z,3.500
2023-04-16T10:11:07.859Z,3.300
2023-04-16T10:12:08.012Z,3.600
2023-04-16T10:13:08.133Z,3.400
2023-04-16T10:14:08.375Z,2.800
2023-04-16T10:15:08.619Z,3.100
2023-04-16T10:16:08.803Z,2.900
2023-04-16T10:18:08.914Z,3.100
2023-04-16T10:19:08.271Z,2.900
2023-04-16T10:21:08.196Z,4.200
2023-04-16T10:22:08.393Z,5.900
2023-04-16T10:23:08.843Z,11.800
2023-04-16T10:24:07.945Z,3.400
2023-04-16T10:25:08.153Z,3.600
2023-04-16T10:26:10.609Z,3.400
2023-04-16T10:28:07.917Z,3.300
2023-04-16T10:29:08.075Z,3.200
2023-04-16T10:30:08.869Z,3.600
2023-04-16T10:31:08.149Z,3.100
2023-04-16T10:32:08.680Z,3.500
2023-04-16T10:33:07.961Z,3.200
2023-04-16T10:34:08.349Z,3.300
2023-04-16T10:35:08.768Z,3.700
2023-04-16T10:36:17.701Z,3.700
2023-04-16T10:37:07.806Z,4.900
2023-04-16T10:38:07.890Z,4.300
2023-04-16T10:39:08.172Z,3.500
2023-04-16T10:40:08.891Z,4.000
2023-04-16T10:41:07.985Z,3.500
2023-04-16T10:42:08.134Z,3.300
2023-04-16T10:43:08.363Z,3.200
2023-04-16T10:44:08.544Z,3.100
2023-04-16T10:45:08.787Z,3.400
2023-04-16T10:46:08.026Z,3.100
2023-04-16T10:47:08.379Z,3.000
2023-04-16T10:48:08.735Z,4.000
2023-04-16T10:49:08.012Z,3.500
2023-04-16T10:50:08.700Z,2.800
2023-04-16T10:51:07.880Z,2.800
2023-04-16T10:52:08.053Z,2.900
2023-04-16T10:53:08.311Z,2.400
2023-04-16T10:54:08.475Z,2.200
2023-04-16T10:55:08.787Z,3.000
2023-04-16T10:56:07.888Z,2.500
2023-04-16T10:57:08.033Z,3.000
2023-04-16T10:58:08.276Z,2.400
2023-04-16T10:59:08.513Z,2.500
2023-04-16T11:00:08.417Z,2.800
2023-04-16T11:01:08.615Z,3.200
2023-04-16T11:02:09.365Z,2.900
2023-04-16T11:03:08.362Z,3.100
2023-04-16T11:04:08.637Z,3.500
2023-04-16T11:06:08.535Z,3.700
2023-04-16T11:07:08.875Z,3.700
2023-04-16T11:08:07.971Z,3.200
2023-04-16T11:09:13.071Z,2.700
2023-04-16T11:10:08.303Z,3.100
2023-04-16T11:11:08.453Z,3.400
2023-04-16T11:12:08.711Z,3.000
2023-04-16T11:13:07.835Z,2.800
2023-04-16T11:14:07.963Z,3.500
2023-04-16T11:15:08.223Z,3.000
2023-04-16T11:16:08.452Z,3.100
2023-04-16T11:17:08.820Z,3.000
2023-04-16T11:18:08.014Z,2.700
2023-04-16T11:19:11.326Z,2.500
2023-04-16T11:20:17.557Z,2.500
2023-04-16T11:22:08.222Z,3.100
2023-04-16T11:23:08.351Z,2.800
2023-04-16T11:24:08.576Z,3.000
2023-04-16T11:25:08.797Z,2.900
2023-04-16T11:26:07.955Z,3.100
2023-04-16T11:27:08.176Z,2.600
2023-04-16T11:28:08.427Z,2.900
2023-04-16T11:29:08.750Z,2.700
2023-04-16T11:30:08.633Z,2.700
2023-04-16T11:31:08.810Z,3.000
2023-04-16T11:33:08.460Z,2.600
2023-04-16T11:34:08.607Z,2.500
2023-04-16T11:35:08.860Z,2.200
2023-04-16T11:36:08.099Z,2.800
2023-04-16T11:37:08.284Z,3.400
2023-04-16T11:38:08.553Z,4.300
2023-04-16T11:39:08.919Z,4.600
2023-04-16T11:40:08.714Z,3.400
2023-04-16T11:41:07.871Z,3.000
2023-04-16T11:42:08.044Z,2.700
2023-04-16T11:43:08.352Z,2.900
2023-04-16T11:44:08.523Z,2.700
2023-04-16T11:45:08.682Z,3.200
2023-04-16T11:46:20.389Z,2.200
2023-04-16T11:48:11.470Z,2.500
2023-04-16T11:49:10.842Z,2.800
2023-04-16T11:50:10.389Z,2.800
2023-04-16T11:51:10.688Z,2.300
2023-04-16T11:52:09.799Z,2.300
2023-04-16T11:53:09.964Z,2.600
2023-04-16T11:54:11.798Z,2.300
2023-04-16T11:55:10.274Z,2.000
2023-04-16T11:56:10.337Z,2.400
2023-04-16T11:57:10.537Z,2.400
2023-04-16T11:58:10.745Z,2.600
2023-04-16T11:59:10.206Z,2.500
2023-04-16T12:00:18.826Z,2.600
2023-04-16T12:02:12.181Z,2.400
2023-04-16T12:03:12.111Z,2.900
2023-04-16T12:04:11.722Z,2.700
2023-04-16T12:05:11.731Z,3.300
2023-04-16T12:06:11.043Z,3.200
2023-04-16T12:07:11.205Z,2.900
2023-04-16T12:08:11.330Z,2.800
2023-04-16T12:09:11.551Z,2.700
2023-04-16T12:10:13.867Z,3.000
2023-04-16T12:11:11.316Z,2.400
2023-04-16T12:12:11.619Z,2.700
2023-04-16T12:13:11.774Z,2.800
2023-04-16T12:14:10.949Z,2.900
2023-04-16T12:15:11.356Z,2.500
2023-04-16T12:16:11.617Z,2.400
2023-04-16T12:17:11.081Z,2.200
2023-04-16T12:18:11.469Z,2.900
2023-04-16T12:19:11.851Z,2.800
2023-04-16T12:21:11.430Z,2.600
2023-04-16T12:22:11.614Z,2.400
2023-04-16T12:23:11.858Z,3.300
2023-04-16T12:26:11.476Z,3.600
2023-04-16T12:27:11.892Z,2.900
2023-04-16T12:28:11.059Z,2.800
2023-04-16T12:29:11.332Z,3.200
2023-04-16T12:30:11.817Z,2.600
2023-04-16T12:31:11.139Z,3.000
2023-04-16T12:32:11.507Z,2.700
2023-04-16T12:33:14.707Z,2.500
2023-04-16T12:34:11.808Z,3.000
2023-04-16T12:35:15.873Z,2.700
2023-04-16T12:36:11.015Z,2.500
2023-04-16T12:37:11.239Z,2.200
2023-04-16T12:39:11.237Z,3.200
2023-04-16T12:40:11.872Z,2.500
2023-04-16T12:41:11.600Z,2.700
2023-04-16T12:42:11.771Z,2.500
2023-04-16T12:44:11.435Z,2.700
2023-04-16T12:45:11.604Z,2.900
2023-04-16T12:46:11.895Z,3.000
2023-04-16T12:47:11.229Z,2.700
2023-04-16T12:48:11.737Z,2.800
2023-04-16T12:49:11.196Z,2.200
2023-04-16T12:50:11.546Z,2.400
2023-04-16T12:51:11.723Z,2.700
2023-04-16T12:52:10.866Z,2.400
2023-04-16T12:53:11.116Z,2.500
2023-04-16T12:54:11.292Z,2.200
2023-04-16T12:55:11.515Z,2.300
2023-04-16T12:56:11.725Z,2.600
2023-04-16T12:57:10.923Z,2.200
2023-04-16T12:58:12.546Z,2.300
2023-04-16T13:00:11.295Z,2.100
2023-04-16T13:01:11.565Z,2.300
2023-04-16T13:02:12.047Z,2.300
2023-04-16T13:03:11.843Z,2.100
2023-04-16T13:04:12.422Z,2.000
2023-04-16T13:06:11.197Z,2.200
2023-04-16T13:07:11.375Z,2.200
2023-04-16T13:08:11.520Z,2.300
2023-04-16T13:09:11.813Z,2.700
2023-04-16T13:11:11.408Z,2.600
2023-04-16T13:12:11.654Z,2.800
2023-04-16T13:13:10.864Z,2.700
2023-04-16T13:14:11.108Z,2.900
2023-04-16T13:15:11.321Z,2.900
2023-04-16T13:16:11.905Z,2.700
2023-04-16T13:18:11.532Z,2.900
2023-04-16T13:19:11.879Z,2.800
2023-04-16T13:20:11.316Z,3.000
2023-04-16T13:21:11.564Z,2.400
2023-04-16T13:22:11.832Z,2.800
2023-04-16T13:23:11.108Z,3.000
2023-04-16T13:24:11.395Z,2.700
2023-04-16T13:25:11.625Z,2.600
2023-04-16T13:26:11.906Z,2.800
2023-04-16T13:27:11.102Z,3.200
2023-04-16T13:28:11.275Z,3.100
2023-04-16T13:29:11.509Z,2.900
2023-04-16T13:30:10.815Z,3.400
2023-04-16T13:31:11.033Z,3.400
2023-04-16T13:32:11.367Z,3.100
2023-04-16T13:33:11.791Z,2.900
2023-04-16T13:34:11.139Z,3.700
2023-04-16T13:35:11.356Z,3.400
2023-04-16T13:36:11.566Z,3.500
2023-04-16T13:37:11.727Z,3.600
2023-04-16T13:38:10.875Z,3.200
2023-04-16T13:39:11.172Z,3.400
2023-04-16T13:40:11.531Z,3.400
2023-04-16T13:41:11.739Z,2.900
2023-04-16T13:42:10.888Z,3.500